sensor_id;sensor_type;location;lat;lon;timestamp;P1;durP1;ratioP1;P2;durP2;ratioP2
20144;SDS011;10233;50.814;6.590;2023-02-01T00:00:50;11.60;;;3.87;;
20144;SDS011;10233;50.814;6.590;2023-02-01T00:01:50;8.80;;;3.45;;
20144;SDS011;10233;50.814;6.590;2023-02-01T00:02:51;11.07;;;3.57;;
20144;SDS011;10233;50.814;6.590;2023-02-01T00:03:51;13.95;;;4.15;;
20144;SDS011;10233;50.814;6.590;2023-02-01T00:04:52;10.87;;;3.63;;
20144;SDS011;10233;50.814;6.590;2023-02-01T00:05:56;13.90;;;3.92;;
20144;SDS011;10233;50.814;6.590;2023-02-01T00:06:57;13.02;;;4.03;;
20144;SDS011;10233;50.814;6.590;2023-02-01T00:07:58;11.20;;;4.00;;
20144;SDS011;10233;50.814;6.590;2023-02-01T00:08:58;11.32;;;3.47;;
20144;SDS011;10233;50.814;6.590;2023-02-01T00:09:58;11.23;;;3.00;;
20144;SDS011;10233;50.814;6.590;2023-02-01T00:11:03;12.05;;;3.17;;
20144;SDS011;10233;50.814;6.590;2023-02-01T00:12:04;13.70;;;3.22;;
20144;SDS011;10233;50.814;6.590;2023-02-01T00:13:04;12.27;;;3.05;;
20144;SDS011;10233;50.814;6.590;2023-02-01T00:14:05;10.60;;;3.60;;
20144;SDS011;10233;50.814;6.590;2023-02-01T00:15:06;10.27;;;3.00;;
20144;SDS011;10233;50.814;6.590;2023-02-01T00:16:10;10.07;;;2.90;;
20144;SDS011;10233;50.814;6.590;2023-02-01T00:17:20;9.73;;;3.00;;
20144;SDS011;10233;50.814;6.590;2023-02-01T00:18:20;11.17;;;2.87;;
20144;SDS011;10233;50.814;6.590;2023-02-01T00:19:20;11.47;;;3.17;;
20144;SDS011;10233;50.814;6.590;2023-02-01T00:20:21;11.63;;;3.40;;
20144;SDS011;10233;50.814;6.590;2023-02-01T00:21:21;10.70;;;3.03;;
20144;SDS011;10233;50.814;6.590;2023-02-01T00:22:22;10.07;;;2.70;;
20144;SDS011;10233;50.814;6.590;2023-02-01T00:23:22;10.75;;;3.35;;
20144;SDS011;10233;50.814;6.590;2023-02-01T00:24:23;10.27;;;2.90;;
20144;SDS011;10233;50.814;6.590;2023-02-01T00:25:23;6.80;;;2.60;;
20144;SDS011;10233;50.814;6.590;2023-02-01T00:27:30;8.13;;;3.13;;
20144;SDS011;10233;50.814;6.590;2023-02-01T00:28:31;9.98;;;3.00;;
20144;SDS011;10233;50.814;6.590;2023-02-01T00:29:32;10.43;;;3.00;;
20144;SDS011;10233;50.814;6.590;2023-02-01T00:30:33;16.83;;;3.08;;
20144;SDS011;10233;50.814;6.590;2023-02-01T00:31:33;10.77;;;2.93;;
20144;SDS011;10233;50.814;6.590;2023-02-01T00:32:33;10.57;;;3.05;;
20144;SDS011;10233;50.814;6.590;2023-02-01T00:33:35;12.05;;;3.33;;
20144;SDS011;10233;50.814;6.590;2023-02-01T00:34:35;9.48;;;2.60;;
20144;SDS011;10233;50.814;6.590;2023-02-01T00:35:36;14.10;;;3.17;;
20144;SDS011;10233;50.814;6.590;2023-02-01T00:36:36;9.30;;;2.90;;
20144;SDS011;10233;50.814;6.590;2023-02-01T00:37:37;10.67;;;3.03;;
20144;SDS011;10233;50.814;6.590;2023-02-01T00:38:37;6.70;;;2.78;;
20144;SDS011;10233;50.814;6.590;2023-02-01T00:39:39;10.25;;;2.90;;
20144;SDS011;10233;50.814;6.590;2023-02-01T00:40:40;11.27;;;2.80;;
20144;SDS011;10233;50.814;6.590;2023-02-01T00:41:40;8.02;;;2.83;;
20144;SDS011;10233;50.814;6.590;2023-02-01T00:42:42;10.95;;;2.78;;
20144;SDS011;10233;50.814;6.590;2023-02-01T00:43:42;8.00;;;2.75;;
20144;SDS011;10233;50.814;6.590;2023-02-01T00:44:43;8.23;;;2.85;;
20144;SDS011;10233;50.814;6.590;2023-02-01T00:45:45;10.00;;;3.20;;
20144;SDS011;10233;50.814;6.590;2023-02-01T00:46:48;9.43;;;3.08;;
20144;SDS011;10233;50.814;6.590;2023-02-01T00:47:49;14.37;;;3.47;;
20144;SDS011;10233;50.814;6.590;2023-02-01T00:48:49;9.73;;;2.90;;
20144;SDS011;10233;50.814;6.590;2023-02-01T00:49:50;9.07;;;2.77;;
20144;SDS011;10233;50.814;6.590;2023-02-01T00:50:50;9.50;;;3.10;;
20144;SDS011;10233;50.814;6.590;2023-02-01T00:51:51;13.03;;;3.70;;
20144;SDS011;10233;50.814;6.590;2023-02-01T00:52:51;13.90;;;3.27;;
20144;SDS011;10233;50.814;6.590;2023-02-01T00:53:52;10.03;;;3.10;;
20144;SDS011;10233;50.814;6.590;2023-02-01T00:54:53;7.82;;;3.40;;
20144;SDS011;10233;50.814;6.590;2023-02-01T00:55:54;10.17;;;3.33;;
20144;SDS011;10233;50.814;6.590;2023-02-01T00:56:55;13.35;;;3.50;;
20144;SDS011;10233;50.814;6.590;2023-02-01T00:57:55;10.10;;;3.20;;
20144;SDS011;10233;50.814;6.590;2023-02-01T00:58:56;12.90;;;3.30;;
20144;SDS011;10233;50.814;6.590;2023-02-01T00:59:56;10.30;;;3.50;;
20144;SDS011;10233;50.814;6.590;2023-02-01T01:01:00;11.43;;;3.60;;
20144;SDS011;10233;50.814;6.590;2023-02-01T01:02:05;11.13;;;3.35;;
20144;SDS011;10233;50.814;6.590;2023-02-01T01:03:05;13.93;;;3.60;;
20144;SDS011;10233;50.814;6.590;2023-02-01T01:04:17;8.35;;;3.35;;
20144;SDS011;10233;50.814;6.590;2023-02-01T01:05:18;11.43;;;3.90;;
20144;SDS011;10233;50.814;6.590;2023-02-01T01:06:36;9.07;;;3.17;;
20144;SDS011;10233;50.814;6.590;2023-02-01T01:07:37;12.38;;;3.55;;
20144;SDS011;10233;50.814;6.590;2023-02-01T01:08:38;11.90;;;3.87;;
20144;SDS011;10233;50.814;6.590;2023-02-01T01:09:39;12.32;;;3.80;;
20144;SDS011;10233;50.814;6.590;2023-02-01T01:10:39;14.33;;;4.00;;
20144;SDS011;10233;50.814;6.590;2023-02-01T01:11:40;14.40;;;4.72;;
20144;SDS011;10233;50.814;6.590;2023-02-01T01:12:41;11.48;;;4.25;;
20144;SDS011;10233;50.814;6.590;2023-02-01T01:13:42;13.20;;;4.07;;
20144;SDS011;10233;50.814;6.590;2023-02-01T01:14:43;8.47;;;3.60;;
20144;SDS011;10233;50.814;6.590;2023-02-01T01:15:44;10.63;;;4.13;;
20144;SDS011;10233;50.814;6.590;2023-02-01T01:16:44;10.77;;;4.20;;
20144;SDS011;10233;50.814;6.590;2023-02-01T01:17:45;12.63;;;4.20;;
20144;SDS011;10233;50.814;6.590;2023-02-01T01:18:45;12.87;;;4.00;;
20144;SDS011;10233;50.814;6.590;2023-02-01T01:19:46;18.60;;;4.38;;
20144;SDS011;10233;50.814;6.590;2023-02-01T01:20:47;21.13;;;4.40;;
20144;SDS011;10233;50.814;6.590;2023-02-01T01:21:47;11.88;;;4.15;;
20144;SDS011;10233;50.814;6.590;2023-02-01T01:22:48;11.53;;;4.07;;
20144;SDS011;10233;50.814;6.590;2023-02-01T01:23:48;12.85;;;3.92;;
20144;SDS011;10233;50.814;6.590;2023-02-01T01:24:49;11.83;;;4.23;;
20144;SDS011;10233;50.814;6.590;2023-02-01T01:25:49;14.30;;;4.43;;
20144;SDS011;10233;50.814;6.590;2023-02-01T01:26:50;11.83;;;3.90;;
20144;SDS011;10233;50.814;6.590;2023-02-01T01:27:50;13.93;;;3.93;;
20144;SDS011;10233;50.814;6.590;2023-02-01T01:28:51;14.40;;;4.05;;
20144;SDS011;10233;50.814;6.590;2023-02-01T01:29:52;13.40;;;4.10;;
20144;SDS011;10233;50.814;6.590;2023-02-01T01:30:52;13.15;;;4.00;;
20144;SDS011;10233;50.814;6.590;2023-02-01T01:31:53;8.83;;;3.67;;
20144;SDS011;10233;50.814;6.590;2023-02-01T01:32:53;13.32;;;3.58;;
20144;SDS011;10233;50.814;6.590;2023-02-01T01:33:55;12.50;;;4.20;;
20144;SDS011;10233;50.814;6.590;2023-02-01T01:34:56;12.85;;;3.92;;
20144;SDS011;10233;50.814;6.590;2023-02-01T01:35:57;15.30;;;4.20;;
20144;SDS011;10233;50.814;6.590;2023-02-01T01:36:57;12.23;;;3.92;;
20144;SDS011;10233;50.814;6.590;2023-02-01T01:37:58;9.73;;;3.97;;
20144;SDS011;10233;50.814;6.590;2023-02-01T01:38:59;12.13;;;3.92;;
20144;SDS011;10233;50.814;6.590;2023-02-01T01:40:00;12.47;;;4.53;;
20144;SDS011;10233;50.814;6.590;2023-02-01T01:41:01;17.23;;;3.73;;
20144;SDS011;10233;50.814;6.590;2023-02-01T01:42:01;11.35;;;3.97;;
20144;SDS011;10233;50.814;6.590;2023-02-01T01:43:02;13.10;;;3.78;;
20144;SDS011;10233;50.814;6.590;2023-02-01T01:44:04;11.10;;;3.70;;
20144;SDS011;10233;50.814;6.590;2023-02-01T01:45:23;14.65;;;4.82;;
20144;SDS011;10233;50.814;6.590;2023-02-01T01:46:34;10.80;;;3.67;;
20144;SDS011;10233;50.814;6.590;2023-02-01T01:47:39;17.35;;;4.00;;
20144;SDS011;10233;50.814;6.590;2023-02-01T01:48:44;11.93;;;4.03;;
20144;SDS011;10233;50.814;6.590;2023-02-01T01:49:47;12.98;;;3.97;;
20144;SDS011;10233;50.814;6.590;2023-02-01T01:50:50;11.70;;;4.80;;
20144;SDS011;10233;50.814;6.590;2023-02-01T01:51:59;12.95;;;3.92;;
20144;SDS011;10233;50.814;6.590;2023-02-01T01:53:03;14.23;;;4.28;;
20144;SDS011;10233;50.814;6.590;2023-02-01T01:54:11;16.02;;;4.60;;
20144;SDS011;10233;50.814;6.590;2023-02-01T01:55:18;15.18;;;4.18;;
20144;SDS011;10233;50.814;6.590;2023-02-01T01:56:20;13.45;;;4.30;;
20144;SDS011;10233;50.814;6.590;2023-02-01T01:57:31;12.52;;;4.18;;
20144;SDS011;10233;50.814;6.590;2023-02-01T01:58:36;10.45;;;4.10;;
20144;SDS011;10233;50.814;6.590;2023-02-01T01:59:37;14.57;;;4.50;;
20144;SDS011;10233;50.814;6.590;2023-02-01T02:00:40;14.00;;;4.20;;
20144;SDS011;10233;50.814;6.590;2023-02-01T02:01:42;12.57;;;4.20;;
20144;SDS011;10233;50.814;6.590;2023-02-01T02:02:44;15.60;;;4.30;;
20144;SDS011;10233;50.814;6.590;2023-02-01T02:03:48;12.43;;;4.57;;
20144;SDS011;10233;50.814;6.590;2023-02-01T02:04:50;15.27;;;4.30;;
20144;SDS011;10233;50.814;6.590;2023-02-01T02:05:51;9.80;;;3.97;;
20144;SDS011;10233;50.814;6.590;2023-02-01T02:08:00;11.02;;;3.80;;
20144;SDS011;10233;50.814;6.590;2023-02-01T02:09:01;12.82;;;4.00;;
20144;SDS011;10233;50.814;6.590;2023-02-01T02:10:06;11.02;;;3.70;;
20144;SDS011;10233;50.814;6.590;2023-02-01T02:11:11;9.85;;;3.30;;
20144;SDS011;10233;50.814;6.590;2023-02-01T02:12:16;17.50;;;4.43;;
20144;SDS011;10233;50.814;6.590;2023-02-01T02:13:17;10.90;;;3.58;;
20144;SDS011;10233;50.814;6.590;2023-02-01T02:14:18;15.13;;;4.10;;
20144;SDS011;10233;50.814;6.590;2023-02-01T02:15:20;13.13;;;3.75;;
20144;SDS011;10233;50.814;6.590;2023-02-01T02:22:54;16.75;;;3.80;;
20144;SDS011;10233;50.814;6.590;2023-02-01T02:30:25;12.70;;;3.60;;
20144;SDS011;10233;50.814;6.590;2023-02-01T02:34:50;12.10;;;3.65;;
20144;SDS011;10233;50.814;6.590;2023-02-01T02:37:43;12.98;;;3.63;;
20144;SDS011;10233;50.814;6.590;2023-02-01T02:38:58;11.38;;;3.70;;
20144;SDS011;10233;50.814;6.590;2023-02-01T02:41:19;12.27;;;3.88;;
20144;SDS011;10233;50.814;6.590;2023-02-01T02:43:04;9.95;;;3.60;;
20144;SDS011;10233;50.814;6.590;2023-02-01T02:46:30;12.85;;;3.95;;
20144;SDS011;10233;50.814;6.590;2023-02-01T02:47:57;16.77;;;3.83;;
20144;SDS011;10233;50.814;6.590;2023-02-01T02:52:15;10.13;;;3.65;;
20144;SDS011;10233;50.814;6.590;2023-02-01T02:53:48;12.25;;;3.58;;
20144;SDS011;10233;50.814;6.590;2023-02-01T02:55:30;12.10;;;3.75;;
20144;SDS011;10233;50.814;6.590;2023-02-01T02:56:35;9.95;;;3.50;;
20144;SDS011;10233;50.814;6.590;2023-02-01T02:57:56;10.02;;;3.33;;
20144;SDS011;10233;50.814;6.590;2023-02-01T02:59:18;12.60;;;4.22;;
20144;SDS011;10233;50.814;6.590;2023-02-01T03:00:41;15.10;;;4.30;;
20144;SDS011;10233;50.814;6.590;2023-02-01T03:02:01;14.02;;;3.33;;
20144;SDS011;10233;50.814;6.590;2023-02-01T03:03:21;13.95;;;3.85;;
20144;SDS011;10233;50.814;6.590;2023-02-01T03:04:40;13.13;;;3.75;;
20144;SDS011;10233;50.814;6.590;2023-02-01T03:05:43;11.77;;;3.50;;
20144;SDS011;10233;50.814;6.590;2023-02-01T03:06:45;11.87;;;3.63;;
20144;SDS011;10233;50.814;6.590;2023-02-01T03:09:06;9.45;;;3.58;;
20144;SDS011;10233;50.814;6.590;2023-02-01T03:10:13;12.57;;;3.45;;
20144;SDS011;10233;50.814;6.590;2023-02-01T03:11:20;11.90;;;3.58;;
20144;SDS011;10233;50.814;6.590;2023-02-01T03:12:21;12.63;;;4.00;;
20144;SDS011;10233;50.814;6.590;2023-02-01T03:14:49;10.52;;;3.28;;
20144;SDS011;10233;50.814;6.590;2023-02-01T03:15:56;20.10;;;4.43;;
20144;SDS011;10233;50.814;6.590;2023-02-01T03:17:03;13.15;;;3.55;;
20144;SDS011;10233;50.814;6.590;2023-02-01T03:18:12;11.02;;;3.50;;
20144;SDS011;10233;50.814;6.590;2023-02-01T03:20:36;18.40;;;4.03;;
20144;SDS011;10233;50.814;6.590;2023-02-01T03:21:40;12.27;;;3.47;;
20144;SDS011;10233;50.814;6.590;2023-02-01T03:22:45;12.18;;;3.25;;
20144;SDS011;10233;50.814;6.590;2023-02-01T03:23:48;10.57;;;3.38;;
20144;SDS011;10233;50.814;6.590;2023-02-01T03:24:54;14.50;;;3.75;;
20144;SDS011;10233;50.814;6.590;2023-02-01T03:25:57;14.68;;;4.05;;
20144;SDS011;10233;50.814;6.590;2023-02-01T03:27:11;12.68;;;4.07;;
20144;SDS011;10233;50.814;6.590;2023-02-01T03:28:18;12.15;;;3.55;;
20144;SDS011;10233;50.814;6.590;2023-02-01T03:29:25;12.40;;;4.15;;
20144;SDS011;10233;50.814;6.590;2023-02-01T03:30:34;13.65;;;4.20;;
20144;SDS011;10233;50.814;6.590;2023-02-01T03:31:38;14.98;;;4.18;;
20144;SDS011;10233;50.814;6.590;2023-02-01T03:32:39;12.60;;;3.57;;
20144;SDS011;10233;50.814;6.590;2023-02-01T03:34:04;10.93;;;3.60;;
20144;SDS011;10233;50.814;6.590;2023-02-01T03:35:05;12.85;;;3.97;;
20144;SDS011;10233;50.814;6.590;2023-02-01T03:36:15;18.02;;;4.72;;
20144;SDS011;10233;50.814;6.590;2023-02-01T03:37:25;15.40;;;4.05;;
20144;SDS011;10233;50.814;6.590;2023-02-01T03:38:37;13.30;;;3.92;;
20144;SDS011;10233;50.814;6.590;2023-02-01T03:39:48;15.48;;;4.55;;
20144;SDS011;10233;50.814;6.590;2023-02-01T03:41:17;17.55;;;4.20;;
20144;SDS011;10233;50.814;6.590;2023-02-01T03:42:27;14.57;;;4.63;;
20144;SDS011;10233;50.814;6.590;2023-02-01T03:43:33;14.95;;;4.15;;
20144;SDS011;10233;50.814;6.590;2023-02-01T03:46:09;15.00;;;4.40;;
20144;SDS011;10233;50.814;6.590;2023-02-01T03:47:20;12.70;;;3.83;;
20144;SDS011;10233;50.814;6.590;2023-02-01T03:48:25;14.65;;;4.53;;
20144;SDS011;10233;50.814;6.590;2023-02-01T03:49:35;14.38;;;4.00;;
20144;SDS011;10233;50.814;6.590;2023-02-01T03:50:43;17.45;;;4.50;;
20144;SDS011;10233;50.814;6.590;2023-02-01T03:51:47;14.43;;;4.38;;
20144;SDS011;10233;50.814;6.590;2023-02-01T03:52:52;12.88;;;3.72;;
20144;SDS011;10233;50.814;6.590;2023-02-01T03:53:56;15.10;;;4.25;;
20144;SDS011;10233;50.814;6.590;2023-02-01T03:54:57;12.00;;;3.50;;
20144;SDS011;10233;50.814;6.590;2023-02-01T03:56:02;14.33;;;4.33;;
20144;SDS011;10233;50.814;6.590;2023-02-01T03:57:05;12.73;;;4.05;;
20144;SDS011;10233;50.814;6.590;2023-02-01T03:58:14;14.63;;;4.15;;
20144;SDS011;10233;50.814;6.590;2023-02-01T03:59:20;12.18;;;3.88;;
20144;SDS011;10233;50.814;6.590;2023-02-01T04:00:23;16.63;;;4.50;;
20144;SDS011;10233;50.814;6.590;2023-02-01T04:01:29;15.88;;;4.53;;
20144;SDS011;10233;50.814;6.590;2023-02-01T04:02:30;20.33;;;4.80;;
20144;SDS011;10233;50.814;6.590;2023-02-01T04:03:31;15.60;;;4.25;;
20144;SDS011;10233;50.814;6.590;2023-02-01T04:04:33;19.52;;;4.93;;
20144;SDS011;10233;50.814;6.590;2023-02-01T04:05:34;13.05;;;4.65;;
20144;SDS011;10233;50.814;6.590;2023-02-01T04:06:41;15.00;;;4.10;;
20144;SDS011;10233;50.814;6.590;2023-02-01T04:07:42;14.85;;;4.72;;
20144;SDS011;10233;50.814;6.590;2023-02-01T04:08:43;8.95;;;3.65;;
20144;SDS011;10233;50.814;6.590;2023-02-01T04:09:43;14.13;;;3.97;;
20144;SDS011;10233;50.814;6.590;2023-02-01T04:10:43;11.77;;;3.92;;
20144;SDS011;10233;50.814;6.590;2023-02-01T04:11:44;14.60;;;4.17;;
20144;SDS011;10233;50.814;6.590;2023-02-01T04:12:44;13.13;;;3.97;;
20144;SDS011;10233;50.814;6.590;2023-02-01T04:13:45;14.67;;;3.80;;
20144;SDS011;10233;50.814;6.590;2023-02-01T04:14:45;15.13;;;4.38;;
20144;SDS011;10233;50.814;6.590;2023-02-01T04:15:46;16.47;;;3.97;;
20144;SDS011;10233;50.814;6.590;2023-02-01T04:16:49;18.52;;;5.30;;
20144;SDS011;10233;50.814;6.590;2023-02-01T04:17:50;13.80;;;4.20;;
20144;SDS011;10233;50.814;6.590;2023-02-01T04:18:51;10.80;;;3.58;;
20144;SDS011;10233;50.814;6.590;2023-02-01T04:19:51;9.43;;;3.93;;
20144;SDS011;10233;50.814;6.590;2023-02-01T04:20:51;16.60;;;4.10;;
20144;SDS011;10233;50.814;6.590;2023-02-01T04:21:52;12.10;;;3.70;;
20144;SDS011;10233;50.814;6.590;2023-02-01T04:22:52;14.52;;;3.75;;
20144;SDS011;10233;50.814;6.590;2023-02-01T04:23:53;15.57;;;3.53;;
20144;SDS011;10233;50.814;6.590;2023-02-01T04:24:54;13.18;;;3.22;;
20144;SDS011;10233;50.814;6.590;2023-02-01T04:25:58;8.90;;;3.40;;
20144;SDS011;10233;50.814;6.590;2023-02-01T04:26:59;17.67;;;3.88;;
20144;SDS011;10233;50.814;6.590;2023-02-01T04:28:00;12.17;;;3.53;;
20144;SDS011;10233;50.814;6.590;2023-02-01T04:29:00;9.52;;;3.60;;
20144;SDS011;10233;50.814;6.590;2023-02-01T04:30:01;14.37;;;3.47;;
20144;SDS011;10233;50.814;6.590;2023-02-01T04:31:01;13.75;;;3.30;;
20144;SDS011;10233;50.814;6.590;2023-02-01T04:32:02;12.18;;;4.18;;
20144;SDS011;10233;50.814;6.590;2023-02-01T04:33:03;12.93;;;3.97;;
20144;SDS011;10233;50.814;6.590;2023-02-01T04:34:06;18.20;;;3.95;;
20144;SDS011;10233;50.814;6.590;2023-02-01T04:35:07;16.63;;;3.53;;
20144;SDS011;10233;50.814;6.590;2023-02-01T04:36:08;13.48;;;2.88;;
20144;SDS011;10233;50.814;6.590;2023-02-01T04:37:09;14.40;;;3.60;;
20144;SDS011;10233;50.814;6.590;2023-02-01T04:38:09;10.50;;;3.80;;
20144;SDS011;10233;50.814;6.590;2023-02-01T04:39:09;12.37;;;3.43;;
20144;SDS011;10233;50.814;6.590;2023-02-01T04:40:10;10.57;;;3.40;;
20144;SDS011;10233;50.814;6.590;2023-02-01T04:41:11;16.30;;;3.75;;
20144;SDS011;10233;50.814;6.590;2023-02-01T04:42:12;12.67;;;3.27;;
20144;SDS011;10233;50.814;6.590;2023-02-01T04:43:13;14.52;;;3.33;;
20144;SDS011;10233;50.814;6.590;2023-02-01T04:44:14;10.00;;;3.00;;
20144;SDS011;10233;50.814;6.590;2023-02-01T04:45:16;15.65;;;3.58;;
20144;SDS011;10233;50.814;6.590;2023-02-01T04:46:17;12.48;;;3.60;;
20144;SDS011;10233;50.814;6.590;2023-02-01T04:47:17;13.10;;;3.23;;
20144;SDS011;10233;50.814;6.590;2023-02-01T04:48:18;16.25;;;3.35;;
20144;SDS011;10233;50.814;6.590;2023-02-01T04:49:19;15.07;;;3.13;;
20144;SDS011;10233;50.814;6.590;2023-02-01T04:50:21;13.95;;;3.40;;
20144;SDS011;10233;50.814;6.590;2023-02-01T04:51:23;12.98;;;3.33;;
20144;SDS011;10233;50.814;6.590;2023-02-01T04:52:24;12.30;;;2.80;;
20144;SDS011;10233;50.814;6.590;2023-02-01T04:53:24;9.00;;;2.67;;
20144;SDS011;10233;50.814;6.590;2023-02-01T04:54:25;15.70;;;3.17;;
20144;SDS011;10233;50.814;6.590;2023-02-01T04:55:25;11.77;;;2.80;;
20144;SDS011;10233;50.814;6.590;2023-02-01T04:56:26;11.50;;;2.80;;
20144;SDS011;10233;50.814;6.590;2023-02-01T04:57:26;12.18;;;3.22;;
20144;SDS011;10233;50.814;6.590;2023-02-01T04:58:27;13.13;;;3.03;;
20144;SDS011;10233;50.814;6.590;2023-02-01T04:59:27;15.40;;;2.92;;
20144;SDS011;10233;50.814;6.590;2023-02-01T05:00:28;10.48;;;3.28;;
20144;SDS011;10233;50.814;6.590;2023-02-01T05:01:29;11.80;;;2.90;;
20144;SDS011;10233;50.814;6.590;2023-02-01T05:02:30;12.27;;;3.00;;
20144;SDS011;10233;50.814;6.590;2023-02-01T05:03:32;11.82;;;2.83;;
20144;SDS011;10233;50.814;6.590;2023-02-01T05:04:33;13.30;;;2.88;;
20144;SDS011;10233;50.814;6.590;2023-02-01T05:05:34;12.60;;;2.63;;
20144;SDS011;10233;50.814;6.590;2023-02-01T05:06:34;12.60;;;3.28;;
20144;SDS011;10233;50.814;6.590;2023-02-01T05:07:34;15.73;;;3.20;;
20144;SDS011;10233;50.814;6.590;2023-02-01T05:08:35;13.55;;;3.00;;
20144;SDS011;10233;50.814;6.590;2023-02-01T05:09:35;14.90;;;3.40;;
20144;SDS011;10233;50.814;6.590;2023-02-01T05:10:36;10.50;;;2.63;;
20144;SDS011;10233;50.814;6.590;2023-02-01T05:11:36;14.03;;;2.90;;
20144;SDS011;10233;50.814;6.590;2023-02-01T05:12:56;11.35;;;2.63;;
20144;SDS011;10233;50.814;6.590;2023-02-01T05:14:15;10.20;;;2.47;;
20144;SDS011;10233;50.814;6.590;2023-02-01T05:15:16;10.38;;;2.45;;
20144;SDS011;10233;50.814;6.590;2023-02-01T05:16:16;12.57;;;2.77;;
20144;SDS011;10233;50.814;6.590;2023-02-01T05:17:17;11.88;;;2.90;;
20144;SDS011;10233;50.814;6.590;2023-02-01T05:18:17;9.83;;;2.40;;
20144;SDS011;10233;50.814;6.590;2023-02-01T05:19:18;14.93;;;2.53;;
20144;SDS011;10233;50.814;6.590;2023-02-01T05:20:18;17.17;;;2.60;;
20144;SDS011;10233;50.814;6.590;2023-02-01T05:21:18;12.73;;;2.40;;
20144;SDS011;10233;50.814;6.590;2023-02-01T05:22:19;12.03;;;2.90;;
20144;SDS011;10233;50.814;6.590;2023-02-01T05:23:20;12.50;;;2.60;;
20144;SDS011;10233;50.814;6.590;2023-02-01T05:24:20;9.47;;;2.40;;
20144;SDS011;10233;50.814;6.590;2023-02-01T05:25:20;10.15;;;2.40;;
20144;SDS011;10233;50.814;6.590;2023-02-01T05:26:21;14.63;;;2.37;;
20144;SDS011;10233;50.814;6.590;2023-02-01T05:27:21;11.55;;;2.42;;
20144;SDS011;10233;50.814;6.590;2023-02-01T05:28:22;10.17;;;2.20;;
20144;SDS011;10233;50.814;6.590;2023-02-01T05:29:22;11.52;;;2.83;;
20144;SDS011;10233;50.814;6.590;2023-02-01T05:30:23;8.70;;;2.50;;
20144;SDS011;10233;50.814;6.590;2023-02-01T05:31:23;10.00;;;2.20;;
20144;SDS011;10233;50.814;6.590;2023-02-01T05:32:24;12.87;;;2.73;;
20144;SDS011;10233;50.814;6.590;2023-02-01T05:33:24;16.67;;;2.80;;
20144;SDS011;10233;50.814;6.590;2023-02-01T05:34:25;14.27;;;2.53;;
20144;SDS011;10233;50.814;6.590;2023-02-01T05:35:25;11.07;;;2.65;;
20144;SDS011;10233;50.814;6.590;2023-02-01T05:36:26;14.03;;;2.90;;
20144;SDS011;10233;50.814;6.590;2023-02-01T05:37:26;15.60;;;2.45;;
20144;SDS011;10233;50.814;6.590;2023-02-01T05:38:27;13.10;;;2.60;;
20144;SDS011;10233;50.814;6.590;2023-02-01T05:39:29;8.77;;;2.75;;
20144;SDS011;10233;50.814;6.590;2023-02-01T05:40:30;11.03;;;2.30;;
20144;SDS011;10233;50.814;6.590;2023-02-01T05:41:30;12.38;;;2.42;;
20144;SDS011;10233;50.814;6.590;2023-02-01T05:42:30;14.33;;;2.60;;
20144;SDS011;10233;50.814;6.590;2023-02-01T05:43:31;11.60;;;2.28;;
20144;SDS011;10233;50.814;6.590;2023-02-01T05:44:31;12.83;;;2.37;;
20144;SDS011;10233;50.814;6.590;2023-02-01T05:45:32;8.23;;;2.00;;
20144;SDS011;10233;50.814;6.590;2023-02-01T05:46:33;10.43;;;2.57;;
20144;SDS011;10233;50.814;6.590;2023-02-01T05:47:34;7.97;;;2.17;;
20144;SDS011;10233;50.814;6.590;2023-02-01T05:48:34;12.77;;;2.80;;
20144;SDS011;10233;50.814;6.590;2023-02-01T05:49:35;14.47;;;2.80;;
20144;SDS011;10233;50.814;6.590;2023-02-01T05:50:36;11.82;;;2.85;;
20144;SDS011;10233;50.814;6.590;2023-02-01T05:51:42;11.88;;;2.80;;
20144;SDS011;10233;50.814;6.590;2023-02-01T05:52:43;12.93;;;3.00;;
20144;SDS011;10233;50.814;6.590;2023-02-01T05:53:43;13.38;;;2.67;;
20144;SDS011;10233;50.814;6.590;2023-02-01T05:54:44;13.60;;;2.90;;
20144;SDS011;10233;50.814;6.590;2023-02-01T05:55:48;11.18;;;2.40;;
20144;SDS011;10233;50.814;6.590;2023-02-01T05:56:48;14.95;;;3.30;;
20144;SDS011;10233;50.814;6.590;2023-02-01T05:57:49;13.30;;;2.60;;
20144;SDS011;10233;50.814;6.590;2023-02-01T05:58:49;16.30;;;2.93;;
20144;SDS011;10233;50.814;6.590;2023-02-01T05:59:50;15.23;;;3.00;;
20144;SDS011;10233;50.814;6.590;2023-02-01T06:00:50;10.63;;;2.70;;
20144;SDS011;10233;50.814;6.590;2023-02-01T06:01:50;10.60;;;2.70;;
20144;SDS011;10233;50.814;6.590;2023-02-01T06:02:51;15.03;;;2.97;;
20144;SDS011;10233;50.814;6.590;2023-02-01T06:03:51;7.80;;;2.53;;
20144;SDS011;10233;50.814;6.590;2023-02-01T06:04:52;11.40;;;2.63;;
20144;SDS011;10233;50.814;6.590;2023-02-01T06:05:52;14.27;;;2.80;;
20144;SDS011;10233;50.814;6.590;2023-02-01T06:06:53;12.68;;;3.00;;
20144;SDS011;10233;50.814;6.590;2023-02-01T06:07:53;9.30;;;2.50;;
20144;SDS011;10233;50.814;6.590;2023-02-01T06:08:54;12.45;;;2.80;;
20144;SDS011;10233;50.814;6.590;2023-02-01T06:09:54;10.60;;;2.30;;
20144;SDS011;10233;50.814;6.590;2023-02-01T06:11:01;14.57;;;2.85;;
20144;SDS011;10233;50.814;6.590;2023-02-01T06:12:03;15.77;;;2.97;;
20144;SDS011;10233;50.814;6.590;2023-02-01T06:13:04;15.35;;;2.95;;
20144;SDS011;10233;50.814;6.590;2023-02-01T06:14:05;14.67;;;2.77;;
20144;SDS011;10233;50.814;6.590;2023-02-01T06:15:08;11.23;;;2.40;;
20144;SDS011;10233;50.814;6.590;2023-02-01T06:16:08;10.02;;;2.22;;
20144;SDS011;10233;50.814;6.590;2023-02-01T06:17:09;10.82;;;2.55;;
20144;SDS011;10233;50.814;6.590;2023-02-01T06:18:09;10.00;;;2.20;;
20144;SDS011;10233;50.814;6.590;2023-02-01T06:19:10;14.83;;;2.90;;
20144;SDS011;10233;50.814;6.590;2023-02-01T06:20:11;13.50;;;2.87;;
20144;SDS011;10233;50.814;6.590;2023-02-01T06:21:12;10.90;;;2.28;;
20144;SDS011;10233;50.814;6.590;2023-02-01T06:22:14;13.88;;;2.78;;
20144;SDS011;10233;50.814;6.590;2023-02-01T06:23:15;11.27;;;2.60;;
20144;SDS011;10233;50.814;6.590;2023-02-01T06:24:15;15.33;;;3.00;;
20144;SDS011;10233;50.814;6.590;2023-02-01T06:25:16;12.93;;;2.92;;
20144;SDS011;10233;50.814;6.590;2023-02-01T06:26:17;12.93;;;2.47;;
20144;SDS011;10233;50.814;6.590;2023-02-01T06:27:18;12.68;;;2.30;;
20144;SDS011;10233;50.814;6.590;2023-02-01T06:28:18;13.40;;;3.20;;
20144;SDS011;10233;50.814;6.590;2023-02-01T06:29:19;10.27;;;2.97;;
20144;SDS011;10233;50.814;6.590;2023-02-01T06:30:19;9.18;;;2.60;;
20144;SDS011;10233;50.814;6.590;2023-02-01T06:31:20;13.37;;;3.07;;
20144;SDS011;10233;50.814;6.590;2023-02-01T06:32:21;11.32;;;2.47;;
20144;SDS011;10233;50.814;6.590;2023-02-01T06:33:23;12.57;;;2.33;;
20144;SDS011;10233;50.814;6.590;2023-02-01T06:34:24;13.25;;;3.15;;
20144;SDS011;10233;50.814;6.590;2023-02-01T06:35:24;11.83;;;2.60;;
20144;SDS011;10233;50.814;6.590;2023-02-01T06:36:26;12.52;;;2.60;;
20144;SDS011;10233;50.814;6.590;2023-02-01T06:37:27;10.20;;;2.47;;
20144;SDS011;10233;50.814;6.590;2023-02-01T06:38:30;13.50;;;3.42;;
20144;SDS011;10233;50.814;6.590;2023-02-01T06:39:31;17.85;;;3.47;;
20144;SDS011;10233;50.814;6.590;2023-02-01T06:40:31;12.57;;;2.73;;
20144;SDS011;10233;50.814;6.590;2023-02-01T06:41:32;12.65;;;2.88;;
20144;SDS011;10233;50.814;6.590;2023-02-01T06:42:34;12.50;;;2.65;;
20144;SDS011;10233;50.814;6.590;2023-02-01T06:43:35;14.57;;;2.72;;
20144;SDS011;10233;50.814;6.590;2023-02-01T06:44:37;12.43;;;3.10;;
20144;SDS011;10233;50.814;6.590;2023-02-01T06:45:37;13.83;;;3.00;;
20144;SDS011;10233;50.814;6.590;2023-02-01T06:46:38;14.35;;;2.85;;
20144;SDS011;10233;50.814;6.590;2023-02-01T06:47:38;12.90;;;2.72;;